Time;durP1;ratioP1;P1;durP2;ratioP2;P2;SDS_P1;SDS_P2;PMS_P1;PMS_P2;Temp;Humidity;BMP_temperature;BMP_pressure;BME280_temperature;BME280_humidity;BME280_pressure;Samples;Min_cycle;Max_cycle;Signal;HPM_P1;HPM_P2
2021/03/03 00:01:45;;;;;;;25.00;16.02;;;153.60;2201.60;;;;;;5046690;28;20525;-73
2021/03/03 00:04:11;;;;;;;22.10;14.48;;;153.60;2201.60;;;;;;5046068;28;20367;-72
2021/03/03 00:06:37;;;;;;;23.83;13.95;;;153.60;2201.60;;;;;;5048986;28;20037;-73
2021/03/03 00:09:03;;;;;;;24.05;14.25;;;153.60;2176.00;;;;;;5053968;28;20025;-73
2021/03/03 00:11:28;;;;;;;22.95;14.63;;;128.90;2176.00;;;;;;5050132;28;20104;-72
2021/03/03 00:13:54;;;;;;;19.45;13.55;;;128.90;2176.00;;;;;;5048809;28;20132;-72
2021/03/03 00:16:20;;;;;;;19.48;13.60;;;128.90;2176.00;;;;;;5054642;28;20030;-73
2021/03/03 00:18:46;;;;;;;20.85;13.90;;;128.90;2176.00;;;;;;5052068;28;20056;-72
2021/03/03 00:21:11;;;;;;;24.65;15.50;;;128.80;2201.60;;;;;;5050840;28;20029;-72
2021/03/03 00:23:37;;;;;;;21.48;14.05;;;128.80;2201.60;;;;;;5049054;28;20043;-72
2021/03/03 00:26:03;;;;;;;20.67;14.60;;;128.80;2227.20;;;;;;5054893;28;20028;-72
2021/03/03 00:28:29;;;;;;;20.80;13.77;;;;;;;;;;5054399;28;20052;-72
2021/03/03 00:30:54;;;;;;;22.70;14.13;;;128.80;2201.60;;;;;;5054462;28;20120;-73
2021/03/03 00:33:20;;;;;;;24.30;15.15;;;128.70;2201.60;;;;;;5052857;28;20111;-73
2021/03/03 00:35:46;;;;;;;19.80;14.10;;;128.60;2201.60;;;;;;5051023;28;20112;-73
2021/03/03 00:38:12;;;;;;;24.85;14.23;;;128.60;2201.60;;;;;;5051940;28;20033;-71
2021/03/03 00:40:38;;;;;;;22.10;13.35;;;128.60;2227.20;;;;;;5055135;28;20105;-73
2021/03/03 00:43:03;;;;;;;20.63;13.52;;;128.60;2201.60;;;;;;5054471;28;20028;-73
2021/03/03 00:45:29;;;;;;;26.05;14.80;;;128.60;2227.20;;;;;;5052834;28;20179;-72
2021/03/03 00:47:55;;;;;;;23.48;14.18;;;128.60;2227.20;;;;;;5051999;28;20466;-73
2021/03/03 00:50:20;;;;;;;27.35;15.70;;;128.60;2227.20;;;;;;5034908;28;20040;-72
2021/03/03 00:52:46;;;;;;;24.80;14.60;;;128.60;2252.80;;;;;;5054937;28;20040;-71
2021/03/03 00:55:12;;;;;;;20.38;13.57;;;128.50;2227.20;;;;;;5054119;28;20021;-71
2021/03/03 00:57:40;;;;;;;21.02;13.13;;;128.50;2227.20;;;;;;5047923;28;20024;-72
2021/03/03 01:00:07;;;;;;;22.48;14.07;;;128.50;2227.20;;;;;;5053824;28;20043;-73
2021/03/03 01:02:33;;;;;;;22.00;13.65;;;128.60;2227.20;;;;;;5054471;28;20474;-73
2021/03/03 01:04:59;;;;;;;20.95;13.73;;;128.60;2227.20;;;;;;5053964;28;20071;-73
2021/03/03 01:07:25;;;;;;;21.58;13.85;;;128.60;2227.20;;;;;;5051846;28;20543;-72
2021/03/03 01:09:50;;;;;;;20.67;13.45;;;128.60;2201.60;;;;;;5054529;28;20079;-71
2021/03/03 01:12:16;;;;;;;18.92;13.00;;;128.60;2201.60;;;;;;5053893;28;20041;-72
2021/03/03 01:14:42;;;;;;;19.42;13.10;;;128.60;2227.20;;;;;;5053962;28;20025;-72
2021/03/03 01:23:05;;;;;;;20.55;12.57;;;128.70;2201.60;;;;;;5400869;23;20097;-83
2021/03/03 01:25:31;;;;;;;20.73;12.02;;;128.70;2227.20;;;;;;4994306;28;20066;-83
2021/03/03 01:27:56;;;;;;;22.42;13.68;;;128.70;2201.60;;;;;;4977761;28;20062;-89
2021/03/03 01:30:23;;;;;;;21.20;13.30;;;128.60;2201.60;;;;;;4990598;28;20030;-79
2021/03/03 01:32:48;;;;;;;20.40;14.00;;;128.60;2201.60;;;;;;4994100;28;20023;-81
2021/03/03 01:35:15;;;;;;;24.95;15.70;;;128.60;2227.20;;;;;;4993644;28;20034;-79
2021/03/03 01:37:40;;;;;;;21.25;14.23;;;153.70;2201.60;;;;;;4994048;28;20038;-86
2021/03/03 01:40:07;;;;;;;21.95;14.30;;;128.50;2227.20;;;;;;4995435;28;20034;-80
2021/03/03 01:42:33;;;;;;;21.02;13.68;;;128.60;2227.20;;;;;;4995143;28;20026;-92
2021/03/03 01:44:59;;;;;;;21.63;14.23;;;128.50;2227.20;;;;;;4995259;28;20022;-79
2021/03/03 01:47:25;;;;;;;19.85;13.68;;;128.60;2227.20;;;;;;4994265;28;20029;-84
2021/03/03 01:49:54;;;;;;;21.98;14.38;;;128.60;2227.20;;;;;;4994580;28;20034;-84
2021/03/03 01:52:21;;;;;;;18.35;12.85;;;128.60;2227.20;;;;;;4991207;28;20129;-79
2021/03/03 01:54:47;;;;;;;20.73;13.13;;;128.50;2227.20;;;;;;4994256;28;20026;-82
2021/03/03 01:57:13;;;;;;;20.48;13.30;;;128.60;2227.20;;;;;;4994803;28;20053;-78
2021/03/03 01:59:39;;;;;;;21.50;13.43;;;128.60;2227.20;;;;;;4975980;28;20023;-78
2021/03/03 02:02:05;;;;;;;19.83;13.18;;;128.60;2227.20;;;;;;4994734;28;20379;-84
2021/03/03 02:04:32;;;;;;;21.10;12.73;;;128.60;2227.20;;;;;;4989893;28;20030;-90
2021/03/03 02:07:17;;;;;;;21.27;13.23;;;128.60;2227.20;;;;;;4993956;28;20535;-80
2021/03/03 02:10:01;;;;;;;18.38;12.88;;;128.50;2201.60;;;;;;4994371;28;20034;-79
2021/03/03 02:12:40;;;;;;;21.05;12.90;;;128.50;2227.20;;;;;;4997947;28;20089;-82
2021/03/03 02:15:07;;;;;;;19.33;13.32;;;128.50;2227.20;;;;;;4993617;28;20076;-79
2021/03/03 02:17:34;;;;;;;20.60;12.85;;;128.50;2227.20;;;;;;4992278;28;20105;-92
2021/03/03 02:20:06;;;;;;;21.73;13.30;;;128.50;2227.20;;;;;;4993996;28;20511;-79
2021/03/03 02:22:49;;;;;;;20.00;12.98;;;128.50;2227.20;;;;;;4991595;28;20046;-78
2021/03/03 02:25:21;;;;;;;20.45;12.93;;;128.40;2227.20;;;;;;4986847;28;20031;-85
2021/03/03 02:27:48;;;;;;;19.40;12.80;;;128.40;2252.80;;;;;;4978128;28;20041;-90
2021/03/03 02:30:15;;;;;;;18.50;12.75;;;128.40;2252.80;;;;;;4993924;28;20097;-88
2021/03/03 02:32:41;;;;;;;20.63;12.98;;;128.40;2252.80;;;;;;4993793;28;20046;-80
2021/03/03 02:35:15;;;;;;;23.02;12.95;;;128.40;2252.80;;;;;;4991391;28;20431;-78
2021/03/03 02:37:42;;;;;;;20.73;12.10;;;128.40;2252.80;;;;;;4979164;28;20542;-81
2021/03/03 02:40:12;;;;;;;18.75;12.85;;;128.50;2252.80;;;;;;4994167;28;20030;-81
2021/03/03 02:42:39;;;;;;;19.02;13.07;;;128.40;2252.80;;;;;;4993873;28;20559;-85
2021/03/03 02:45:19;;;;;;;19.75;12.93;;;128.40;2252.80;;;;;;4994292;28;20165;-82
2021/03/03 02:47:46;;;;;;;19.83;13.05;;;128.40;2252.80;;;;;;4992838;28;20391;-91
2021/03/03 02:50:13;;;;;;;20.20;12.63;;;128.30;2252.80;;;;;;4991030;28;20023;-84
2021/03/03 02:52:52;;;;;;;20.45;12.85;;;128.30;2252.80;;;;;;4993595;28;20049;-78
2021/03/03 02:55:19;;;;;;;18.92;12.50;;;128.20;2252.80;;;;;;4976344;28;20030;-87
2021/03/03 02:57:46;;;;;;;21.70;13.27;;;128.20;2252.80;;;;;;4993292;28;20436;-79
2021/03/03 03:00:18;;;;;;;19.30;13.23;;;128.20;2252.80;;;;;;4994304;28;20444;-89
2021/03/03 03:02:47;;;;;;;24.55;12.77;;;128.20;2252.80;;;;;;4991976;28;20018;-91
2021/03/03 03:05:15;;;;;;;20.52;13.07;;;128.20;2252.80;;;;;;4993758;28;20049;-80
2021/03/03 03:07:47;;;;;;;19.77;12.90;;;128.10;2252.80;;;;;;4992795;28;20018;-85
2021/03/03 03:10:15;;;;;;;20.75;13.02;;;128.10;2252.80;;;;;;4992442;28;20077;-84
2021/03/03 03:12:51;;;;;;;18.13;12.20;;;128.20;2252.80;;;;;;4994640;28;20071;-83
2021/03/03 03:15:20;;;;;;;18.60;12.82;;;128.20;2252.80;;;;;;4995107;28;20022;-90
2021/03/03 03:17:50;;;;;;;21.70;13.38;;;128.10;2252.80;;;;;;4993396;28;20388;-80
2021/03/03 03:20:17;;;;;;;22.25;12.45;;;128.10;2252.80;;;;;;4992749;28;20030;-89
2021/03/03 03:22:46;;;;;;;18.67;13.43;;;128.10;2252.80;;;;;;4989627;28;20054;-85
2021/03/03 03:25:16;;;;;;;19.95;12.82;;;128.10;2252.80;;;;;;4992493;28;20030;-77
2021/03/03 03:27:44;;;;;;;18.42;12.27;;;128.00;2252.80;;;;;;4994085;28;20401;-85
2021/03/03 03:30:12;;;;;;;19.15;12.75;;;128.00;2252.80;;;;;;4994180;28;20539;-81
2021/03/03 03:32:41;;;;;;;20.13;13.05;;;128.40;2252.80;;;;;;4991504;28;20040;-80
2021/03/03 03:35:09;;;;;;;20.83;12.43;;;128.20;2252.80;;;;;;4992478;28;20026;-79
2021/03/03 03:37:37;;;;;;;21.85;13.00;;;128.00;2252.80;;;;;;4994791;28;20258;-76
2021/03/03 03:40:04;;;;;;;21.92;13.52;;;128.10;2252.80;;;;;;4992843;28;20022;-79
2021/03/03 03:42:30;;;;;;;20.27;12.98;;;128.00;2252.80;;;;;;4992628;28;20026;-75
2021/03/03 03:44:57;;;;;;;20.95;13.80;;;128.00;2252.80;;;;;;4992943;28;20025;-82
2021/03/03 03:47:23;;;;;;;34.67;20.80;;;128.00;2252.80;;;;;;4993409;28;20042;-77
2021/03/03 03:50:08;;;;;;;27.77;16.92;;;128.00;2252.80;;;;;;4994242;28;20034;-88
2021/03/03 03:52:35;;;;;;;20.08;13.65;;;103.30;2227.20;;;;;;4992956;28;20080;-88
2021/03/03 03:55:01;;;;;;;18.48;12.90;;;103.30;2227.20;;;;;;4995576;28;20049;-81
2021/03/03 03:57:27;;;;;;;20.40;13.45;;;103.30;2227.20;;;;;;4994666;28;20027;-81
2021/03/03 03:59:53;;;;;;;18.80;12.88;;;103.20;2227.20;;;;;;4994525;28;20105;-81
2021/03/03 04:02:19;;;;;;;19.45;12.13;;;103.20;2227.20;;;;;;4993499;28;20053;-77
2021/03/03 04:04:45;;;;;;;19.92;13.32;;;103.10;2227.20;;;;;;4993007;28;20026;-82
2021/03/03 04:07:11;;;;;;;21.20;12.43;;;128.80;2252.80;;;;;;4992966;28;20049;-77
2021/03/03 04:09:36;;;;;;;18.35;12.40;;;103.00;2227.20;;;;;;4994271;28;20411;-80
2021/03/03 04:12:03;;;;;;;19.20;12.27;;;102.90;2227.20;;;;;;4976851;28;20038;-81
2021/03/03 04:14:29;;;;;;;19.08;12.57;;;102.90;2227.20;;;;;;4994308;28;20053;-82
2021/03/03 04:16:55;;;;;;;19.67;12.88;;;102.90;2227.20;;;;;;4989407;28;20026;-87
2021/03/03 04:19:21;;;;;;;16.95;12.25;;;102.90;2227.20;;;;;;4994020;28;20034;-77
2021/03/03 04:21:46;;;;;;;17.88;12.18;;;103.00;2227.20;;;;;;4972358;28;20031;-88
2021/03/03 04:24:13;;;;;;;18.25;11.93;;;102.90;2227.20;;;;;;4991535;28;20057;-76
2021/03/03 04:26:38;;;;;;;17.05;12.05;;;102.90;2227.20;;;;;;4989071;28;20044;-76
2021/03/03 04:29:04;;;;;;;24.70;12.93;;;102.90;2227.20;;;;;;4995157;28;20465;-87
2021/03/03 04:31:30;;;;;;;21.52;12.65;;;102.90;2227.20;;;;;;4992152;28;20090;-81
2021/03/03 04:33:59;;;;;;;17.13;12.25;;;102.90;2227.20;;;;;;4993569;28;20097;-77
2021/03/03 04:36:24;;;;;;;17.88;12.00;;;102.80;2227.20;;;;;;4992976;28;20403;-83
2021/03/03 04:38:50;;;;;;;20.20;13.63;;;102.80;2227.20;;;;;;4994154;28;20478;-83
2021/03/03 04:41:16;;;;;;;30.60;16.20;;;102.80;2227.20;;;;;;4996910;28;20034;-78
2021/03/03 04:43:41;;;;;;;22.30;13.88;;;102.80;2227.20;;;;;;4998775;28;20086;-90
2021/03/03 04:46:07;;;;;;;25.02;13.23;;;102.80;2227.20;;;;;;4998074;28;20411;-79
2021/03/03 04:48:33;;;;;;;23.88;13.23;;;102.80;2227.20;;;;;;4995557;28;20480;-76
2021/03/03 04:50:58;;;;;;;18.38;13.20;;;102.90;2227.20;;;;;;4979379;28;20112;-77
2021/03/03 04:53:24;;;;;;;20.52;12.50;;;102.90;2227.20;;;;;;4996187;28;20035;-79
2021/03/03 04:55:50;;;;;;;26.88;14.88;;;102.90;2227.20;;;;;;4995541;28;20026;-78
2021/03/03 04:58:15;;;;;;;21.75;15.02;;;102.90;2227.20;;;;;;4996609;28;20365;-89
2021/03/03 05:00:41;;;;;;;21.13;13.88;;;102.90;2227.20;;;;;;4996070;28;20049;-79
2021/03/03 05:03:07;;;;;;;21.25;13.30;;;102.90;2227.20;;;;;;4993048;28;20042;-81
2021/03/03 05:05:33;;;;;;;19.98;13.15;;;102.90;2227.20;;;;;;4994644;28;20030;-82
2021/03/03 05:07:58;;;;;;;19.02;12.60;;;102.80;2227.20;;;;;;4995479;28;20030;-78
2021/03/03 05:10:24;;;;;;;22.63;12.57;;;102.80;2227.20;;;;;;4994887;28;20451;-87
2021/03/03 05:12:50;;;;;;;24.75;13.73;;;102.80;2227.20;;;;;;4995617;28;20034;-82
2021/03/03 05:15:15;;;;;;;23.90;13.80;;;102.80;2227.20;;;;;;4995650;28;20399;-71
2021/03/03 05:17:41;;;;;;;22.95;12.52;;;102.80;2227.20;;;;;;4994720;28;20384;-70
2021/03/03 05:20:07;;;;;;;19.83;12.18;;;102.80;2227.20;;;;;;4995550;28;20031;-70
2021/03/03 05:22:33;;;;;;;22.45;13.68;;;102.60;2227.20;;;;;;4994279;28;20050;-70
2021/03/03 05:24:59;;;;;;;21.85;13.15;;;102.80;2227.20;;;;;;4995197;28;20519;-70
2021/03/03 05:27:25;;;;;;;24.25;13.32;;;102.80;2227.20;;;;;;4994336;28;20499;-71
2021/03/03 05:29:50;;;;;;;25.65;12.80;;;102.80;2227.20;;;;;;4993794;28;20023;-71
2021/03/03 05:32:16;;;;;;;22.60;13.65;;;102.80;2227.20;;;;;;4995790;28;20046;-70
2021/03/03 05:34:57;;;;;;;21.98;13.60;;;102.80;2227.20;;;;;;4993825;28;20030;-81
2021/03/03 05:37:22;;;;;;;29.52;14.30;;;102.80;2227.20;;;;;;4990860;28;20141;-84
2021/03/03 05:39:48;;;;;;;27.50;14.15;;;102.80;2227.20;;;;;;4977011;28;20054;-79
2021/03/03 05:42:14;;;;;;;21.52;13.63;;;102.90;2227.20;;;;;;4996058;28;20038;-78
2021/03/03 05:44:44;;;;;;;25.38;12.68;;;102.90;2227.20;;;;;;4994589;28;20116;-89
2021/03/03 05:47:10;;;;;;;32.88;14.57;;;103.00;2227.20;;;;;;4993552;28;20384;-86
2021/03/03 05:49:39;;;;;;;27.83;13.90;;;103.10;2227.20;;;;;;4978381;28;20030;-87
2021/03/03 05:52:06;;;;;;;22.92;13.75;;;103.20;2227.20;;;;;;4992383;28;20045;-85
2021/03/03 05:54:32;;;;;;;23.23;13.93;;;103.20;2227.20;;;;;;4992981;28;20023;-82
2021/03/03 05:56:59;;;;;;;25.88;14.05;;;102.70;2227.20;;;;;;4993196;28;20037;-84
2021/03/03 05:59:25;;;;;;;23.80;14.48;;;128.00;2252.80;;;;;;4996448;28;20033;-81
2021/03/03 06:01:51;;;;;;;25.40;14.73;;;128.10;2252.80;;;;;;4994575;28;20023;-82
2021/03/03 06:04:18;;;;;;;30.98;17.05;;;128.10;2252.80;;;;;;4975830;28;20035;-83
2021/03/03 06:06:44;;;;;;;28.90;16.83;;;128.20;2252.80;;;;;;4996140;28;20030;-82
2021/03/03 06:09:10;;;;;;;40.63;19.48;;;128.30;2252.80;;;;;;4975881;28;20026;-83
2021/03/03 06:11:36;;;;;;;32.20;17.70;;;128.40;2252.80;;;;;;4994513;28;20029;-80
2021/03/03 06:14:02;;;;;;;42.50;19.20;;;128.50;2252.80;;;;;;4993929;28;20098;-85
2021/03/03 06:16:29;;;;;;;38.13;20.75;;;128.70;2252.80;;;;;;4993031;28;20069;-80
2021/03/03 06:18:56;;;;;;;36.05;22.00;;;128.90;2252.80;;;;;;4993828;28;20036;-84
2021/03/03 06:21:30;;;;;;;36.20;21.95;;;154.30;2252.80;;;;;;4994800;28;20082;-83
2021/03/03 06:24:13;;;;;;;37.30;22.67;;;179.70;2252.80;;;;;;4993090;28;20039;-74
2021/03/03 06:26:56;;;;;;;59.63;25.77;;;;;;;;;;4981282;28;20034;-77
2021/03/03 06:29:22;;;;;;;33.35;21.80;;;256.90;1945.60;;;;;;4993113;28;20022;-73
2021/03/03 06:31:49;;;;;;;35.08;23.75;;;307.50;1792.00;;;;;;4995844;28;20038;-72
2021/03/03 06:34:18;;;;;;;37.78;24.13;;;333.50;1715.20;;;;;;4992778;28;20026;-73
2021/03/03 06:37:03;;;;;;;37.97;24.52;;;358.80;1587.20;;;;;;4992737;28;20031;-72
2021/03/03 06:39:31;;;;;;;41.42;24.73;;;;;;;;;;4991656;28;20385;-75
2021/03/03 06:41:58;;;;;;;34.58;23.77;;;;;;;;;;4994144;28;20790;-71
2021/03/03 06:44:25;;;;;;;32.60;22.50;;;;;;;;;;4992600;28;20076;-73
2021/03/03 06:47:07;;;;;;;37.55;21.38;;;;;;;;;;4992835;28;20022;-75
2021/03/03 06:49:33;;;;;;;29.17;20.45;;;;;;;;;;4993583;28;20034;-76
2021/03/03 06:51:59;;;;;;;28.17;20.10;;;;;;;;;;4993234;28;20034;-71
2021/03/03 06:54:26;;;;;;;32.88;21.58;;;;;;;;;;4975774;28;20030;-74
2021/03/03 06:56:53;;;;;;;38.60;23.73;;;;;;;;;;4993368;28;20073;-76
2021/03/03 06:59:33;;;;;;;38.72;25.20;;;;;;;;;;4977237;28;20089;-74
2021/03/03 07:02:09;;;;;;;32.10;25.42;;;512.50;998.40;;;;;;4993806;28;20026;-76
2021/03/03 07:04:39;;;;;;;40.50;25.33;;;512.70;972.80;;;;;;4992219;28;20029;-75
2021/03/03 07:07:17;;;;;;;33.35;24.45;;;512.90;1075.20;;;;;;4992576;28;20089;-75
2021/03/03 07:09:43;;;;;;;31.95;22.10;;;;;;;;;;4992103;28;20018;-75
2021/03/03 07:12:12;;;;;;;39.42;19.85;;;537.90;972.80;;;;;;4973713;28;20413;-74
2021/03/03 07:14:43;;;;;;;26.85;17.35;;;512.60;947.20;;;;;;4987545;28;20112;-75
2021/03/03 07:17:13;;;;;;;36.05;20.42;;;512.80;921.60;;;;;;4989123;28;20391;-73
2021/03/03 07:19:51;;;;;;;31.80;17.60;;;512.60;896.00;;;;;;4992076;28;20026;-72
2021/03/03 07:22:22;;;;;;;25.00;16.83;;;512.50;921.60;;;;;;4992059;28;20027;-76
2021/03/03 07:24:51;;;;;;;25.58;17.40;;;512.50;870.40;;;;;;4991980;28;20034;-74
2021/03/03 07:27:20;;;;;;;26.23;19.20;;;512.70;921.60;;;;;;4989486;28;20037;-73
2021/03/03 07:29:51;;;;;;;54.85;48.88;;;537.90;921.60;;;;;;4992061;28;20068;-75
2021/03/03 07:32:18;;;;;;;23.05;18.85;;;538.00;870.40;;;;;;4996946;28;20042;-76
2021/03/03 07:34:49;;;;;;;19.10;14.50;;;537.90;870.40;;;;;;4991600;28;20030;-74
2021/03/03 07:37:17;;;;;;;26.38;16.48;;;538.10;844.80;;;;;;4988044;28;20350;-76
2021/03/03 07:39:46;;;;;;;22.70;17.35;;;;;;;;;;4991041;28;20084;-79
2021/03/03 07:42:18;;;;;;;22.25;15.77;;;563.60;844.80;;;;;;4991769;28;20022;-77
2021/03/03 07:44:46;;;;;;;21.98;16.08;;;563.70;870.40;;;;;;4991262;28;20034;-77
2021/03/03 07:47:13;;;;;;;22.55;15.60;;;563.80;870.40;;;;;;4987194;28;20026;-77
2021/03/03 07:49:40;;;;;;;20.10;15.95;;;563.30;844.80;;;;;;4990685;28;20018;-80
2021/03/03 07:52:06;;;;;;;17.30;13.98;;;538.10;819.20;;;;;;4992981;28;20053;-77
2021/03/03 07:54:32;;;;;;;21.30;15.68;;;512.70;819.20;;;;;;4991309;28;20015;-76
2021/03/03 07:56:59;;;;;;;16.00;13.45;;;537.70;844.80;;;;;;4992067;28;20045;-79
2021/03/03 07:59:25;;;;;;;20.05;15.38;;;537.60;844.80;;;;;;4996145;28;20057;-78
2021/03/03 08:01:51;;;;;;;22.00;15.30;;;512.90;819.20;;;;;;4995311;28;20033;-78
2021/03/03 08:04:39;;;;;;;21.67;14.93;;;512.50;870.40;;;;;;4989818;28;20023;-75
2021/03/03 08:07:18;;;;;;;23.23;15.40;;;537.90;844.80;;;;;;4991202;28;20376;-77
2021/03/03 08:10:15;;;;;;;21.38;16.50;;;538.20;844.80;;;;;;4991418;28;20065;-78
2021/03/03 08:13:03;;;;;;;27.42;17.92;;;563.20;844.80;;;;;;4990315;28;20391;-78
2021/03/03 08:15:38;;;;;;;36.95;19.77;;;563.20;870.40;;;;;;4991919;28;20054;-77
2021/03/03 08:18:16;;;;;;;27.70;18.58;;;;;;;;;;4987098;28;20034;-88
2021/03/03 08:20:44;;;;;;;26.67;19.15;;;538.40;844.80;;;;;;4992300;28;20019;-79
2021/03/03 08:23:10;;;;;;;32.35;22.90;;;538.50;844.80;;;;;;4995108;28;20120;-74
2021/03/03 08:25:52;;;;;;;30.30;21.55;;;538.50;844.80;;;;;;4994308;28;20534;-75
2021/03/03 08:28:30;;;;;;;33.53;21.98;;;538.40;819.20;;;;;;4994191;28;20034;-71
2021/03/03 08:31:13;;;;;;;36.17;22.15;;;538.20;844.80;;;;;;4995201;28;20026;-72
2021/03/03 08:33:42;;;;;;;;;;;538.00;844.80;;;;;;4994531;28;20026;-71
2021/03/03 08:36:30;;;;;;;36.33;22.20;;;538.10;870.40;;;;;;4993761;28;19910;-74
2021/03/03 08:38:56;;;;;;;31.88;21.60;;;538.10;844.80;;;;;;4994201;28;20053;-73
2021/03/03 08:41:30;;;;;;;29.83;22.23;;;538.10;870.40;;;;;;4995472;28;20079;-71
2021/03/03 08:44:00;;;;;;;34.30;22.70;;;538.10;844.80;;;;;;4993338;28;20023;-72
2021/03/03 08:46:25;;;;;;;32.65;21.33;;;537.90;819.20;;;;;;4994088;28;20041;-78
2021/03/03 08:48:57;;;;;;;42.17;23.80;;;537.60;870.40;;;;;;4980577;28;20105;-74
2021/03/03 08:51:25;;;;;;;31.67;21.58;;;512.90;844.80;;;;;;4993998;28;20112;-77
2021/03/03 08:53:57;;;;;;;28.80;18.35;;;512.50;844.80;;;;;;4994528;28;20061;-71
2021/03/03 08:56:48;;;;;;;26.75;18.95;;;486.90;896.00;;;;;;4994932;28;20382;-73
2021/03/03 08:59:19;;;;;;;37.70;22.05;;;486.50;921.60;;;;;;4993332;28;20476;-74
2021/03/03 09:02:17;;;;;;;31.75;20.35;;;461.10;972.80;;;;;;4977051;28;20029;-75
2021/03/03 09:04:53;;;;;;;32.45;17.95;;;435.90;972.80;;;;;;4994384;28;20029;-74
2021/03/03 09:07:30;;;;;;;23.15;15.75;;;410.40;1049.60;;;;;;4990618;28;20054;-74
2021/03/03 09:09:58;;;;;;;21.77;15.02;;;410.10;1024.00;;;;;;4994435;28;20022;-74
2021/03/03 09:12:30;;;;;;;20.13;12.50;;;409.70;1049.60;;;;;;4989358;28;20112;-74
2021/03/03 09:14:57;;;;;;;22.63;16.73;;;384.50;1049.60;;;;;;4990580;28;20023;-75
2021/03/03 09:17:28;;;;;;;27.77;17.65;;;359.30;1100.80;;;;;;4991120;28;20089;-76
2021/03/03 09:19:59;;;;;;;32.45;18.70;;;358.80;1126.40;;;;;;4993638;28;20109;-74
2021/03/03 09:22:29;;;;;;;33.15;21.27;;;358.60;1203.20;;;;;;4987462;28;20038;-76
2021/03/03 09:25:05;;;;;;;35.78;21.90;;;358.60;1203.20;;;;;;4994485;28;20026;-74
2021/03/03 09:27:30;;;;;;;37.72;22.90;;;333.70;1228.80;;;;;;4993673;28;20030;-73
2021/03/03 09:29:57;;;;;;;42.42;22.05;;;333.60;1254.40;;;;;;4994090;28;20033;-76
2021/03/03 09:32:23;;;;;;;36.92;21.40;;;333.70;1280.00;;;;;;4993318;28;20038;-79
2021/03/03 09:34:57;;;;;;;37.10;21.35;;;333.50;1280.00;;;;;;4993016;28;20058;-72
2021/03/03 09:37:24;;;;;;;37.50;20.42;;;333.60;1254.40;;;;;;4982303;28;20133;-72
2021/03/03 09:39:57;;;;;;;29.20;17.15;;;333.30;1305.60;;;;;;4980872;28;20026;-78
2021/03/03 09:42:24;;;;;;;26.30;16.15;;;333.30;1305.60;;;;;;4994594;28;20033;-81
2021/03/03 09:44:56;;;;;;;25.52;15.40;;;333.30;1305.60;;;;;;4993780;28;20018;-71
2021/03/03 09:47:31;;;;;;;22.38;15.90;;;332.90;1331.20;;;;;;4995040;28;20124;-75
2021/03/03 09:49:58;;;;;;;24.65;16.33;;;308.10;1331.20;;;;;;4994034;28;20027;-74
2021/03/03 09:52:54;;;;;;;26.55;17.40;;;332.90;1356.80;;;;;;4976243;28;20042;-79
2021/03/03 09:55:22;;;;;;;23.42;14.43;;;308.10;1331.20;;;;;;4934513;29;20040;-78
2021/03/03 09:57:52;;;;;;;25.05;15.35;;;308.10;1331.20;;;;;;4941045;29;20074;-76
2021/03/03 10:00:22;;;;;;;25.23;14.57;;;332.90;1382.40;;;;;;4937967;29;20042;-72
2021/03/03 10:02:57;;;;;;;24.52;14.93;;;307.90;1382.40;;;;;;4941274;29;20031;-87
2021/03/03 10:05:28;;;;;;;29.90;14.50;;;332.80;1433.60;;;;;;4934302;29;20567;-85
2021/03/03 10:07:58;;;;;;;25.23;14.52;;;308.10;1382.40;;;;;;4936760;29;20438;-77
2021/03/03 10:10:26;;;;;;;23.17;15.15;;;308.10;1408.00;;;;;;4933811;29;20035;-79
2021/03/03 10:12:52;;;;;;;24.75;14.85;;;332.80;1433.60;;;;;;4941269;29;20059;-74
2021/03/03 10:15:29;;;;;;;26.00;15.40;;;332.80;1408.00;;;;;;4937904;29;20042;-72
2021/03/03 10:17:56;;;;;;;25.65;14.88;;;332.90;1433.60;;;;;;4938658;28;20493;-77
2021/03/03 10:20:44;;;;;;;25.45;15.07;;;308.10;1382.40;;;;;;4930861;29;20023;-74
2021/03/03 10:23:14;;;;;;;21.52;14.95;;;332.90;1408.00;;;;;;4936316;28;20553;-76
2021/03/03 10:25:42;;;;;;;26.38;16.50;;;332.80;1408.00;;;;;;4940378;28;20044;-82
2021/03/03 10:28:29;;;;;;;22.45;14.98;;;332.80;1433.60;;;;;;4944541;29;20507;-75
2021/03/03 10:30:57;;;;;;;22.98;15.10;;;308.10;1408.00;;;;;;4947122;28;20038;-74
2021/03/03 10:33:34;;;;;;;26.80;15.40;;;332.90;1459.20;;;;;;4992415;28;20057;-79
2021/03/03 10:36:14;;;;;;;32.42;16.05;;;333.10;1433.60;;;;;;4988076;28;20018;-72
2021/03/03 10:38:55;;;;;;;23.33;16.08;;;333.20;1382.40;;;;;;4991776;28;20052;-86
2021/03/03 10:41:32;;;;;;;25.85;16.77;;;333.30;1408.00;;;;;;4990508;28;20077;-76
2021/03/03 10:43:59;;;;;;;26.25;16.35;;;333.30;1382.40;;;;;;4991955;28;20034;-77
2021/03/03 10:46:26;;;;;;;26.23;15.40;;;333.30;1408.00;;;;;;4992074;28;20030;-75
2021/03/03 10:48:55;;;;;;;26.35;15.95;;;333.30;1382.40;;;;;;4992860;28;20372;-76
2021/03/03 10:51:34;;;;;;;24.77;16.00;;;333.40;1382.40;;;;;;4991343;28;20049;-77
2021/03/03 10:54:00;;;;;;;27.00;16.05;;;333.40;1382.40;;;;;;4992295;28;20026;-76
2021/03/03 10:56:27;;;;;;;25.23;16.92;;;333.40;1356.80;;;;;;4996549;28;20376;-75
2021/03/03 10:58:57;;;;;;;23.02;15.82;;;333.40;1408.00;;;;;;4992540;28;20113;-82
2021/03/03 11:01:24;;;;;;;23.35;15.90;;;333.50;1356.80;;;;;;4991221;28;20058;-74
2021/03/03 11:03:57;;;;;;;23.75;15.98;;;333.70;1382.40;;;;;;4989658;28;20026;-82
2021/03/03 11:06:30;;;;;;;31.10;16.33;;;358.40;1356.80;;;;;;4990398;28;20038;-81
2021/03/03 11:09:10;;;;;;;27.35;16.58;;;333.70;1356.80;;;;;;4995913;28;20504;-71
2021/03/03 11:11:53;;;;;;;23.67;16.52;;;358.40;1356.80;;;;;;4991557;28;20162;-74
2021/03/03 11:14:19;;;;;;;28.17;15.52;;;358.40;1305.60;;;;;;4986618;28;20026;-80
2021/03/03 11:16:46;;;;;;;25.67;16.52;;;358.50;1331.20;;;;;;4991868;28;20022;-83
2021/03/03 11:19:12;;;;;;;23.45;16.00;;;358.50;1305.60;;;;;;4995351;28;20428;-72
2021/03/03 11:21:37;;;;;;;25.40;15.65;;;358.60;1331.20;;;;;;4991837;28;20165;-79
2021/03/03 11:24:04;;;;;;;26.48;14.32;;;358.60;1280.00;;;;;;4990558;28;20054;-78
2021/03/03 11:26:29;;;;;;;23.85;15.27;;;358.70;1280.00;;;;;;4991252;28;20054;-82
2021/03/03 11:28:55;;;;;;;21.23;14.32;;;358.50;1280.00;;;;;;4992485;28;20031;-84
2021/03/03 11:31:21;;;;;;;23.88;15.80;;;358.40;1254.40;;;;;;4992014;28;20132;-79
2021/03/03 11:33:48;;;;;;;22.85;15.35;;;358.40;1280.00;;;;;;4992485;28;20034;-87
2021/03/03 11:36:14;;;;;;;25.83;15.38;;;358.40;1280.00;;;;;;4991743;28;20081;-78
2021/03/03 11:38:40;;;;;;;23.88;14.07;;;358.50;1280.00;;;;;;4991212;28;20042;-85
2021/03/03 11:41:06;;;;;;;23.27;15.25;;;358.70;1280.00;;;;;;4991195;28;20081;-81
2021/03/03 11:43:32;;;;;;;25.98;13.85;;;358.80;1254.40;;;;;;4991742;28;20050;-85
2021/03/03 11:45:58;;;;;;;24.48;15.40;;;358.80;1228.80;;;;;;4990852;28;20030;-75
2021/03/03 11:48:23;;;;;;;21.73;13.98;;;358.80;1228.80;;;;;;4992015;28;20030;-82
2021/03/03 11:50:49;;;;;;;22.48;15.52;;;358.80;1254.40;;;;;;4991607;28;20046;-80
2021/03/03 11:53:15;;;;;;;26.33;14.95;;;358.80;1228.80;;;;;;4991744;28;20046;-80
2021/03/03 11:55:41;;;;;;;26.10;15.23;;;358.70;1228.80;;;;;;4990702;28;20034;-82
2021/03/03 11:58:06;;;;;;;19.27;14.00;;;358.80;1228.80;;;;;;4991571;28;20037;-77
2021/03/03 12:00:32;;;;;;;24.95;15.02;;;358.90;1228.80;;;;;;4976466;28;20026;-81
2021/03/03 12:02:58;;;;;;;23.90;14.10;;;358.90;1203.20;;;;;;4991431;28;20053;-83
2021/03/03 12:05:24;;;;;;;24.67;15.05;;;358.80;1203.20;;;;;;4991340;28;20057;-78
2021/03/03 12:07:50;;;;;;;22.02;15.20;;;358.90;1203.20;;;;;;4991673;28;20033;-81
2021/03/03 12:10:16;;;;;;;23.15;14.38;;;358.90;1203.20;;;;;;4991509;28;20036;-82
2021/03/03 12:12:42;;;;;;;22.88;14.85;;;358.90;1228.80;;;;;;4989475;28;20038;-80
2021/03/03 12:15:08;;;;;;;21.73;14.05;;;359.00;1203.20;;;;;;4987140;28;20033;-78
2021/03/03 12:17:35;;;;;;;23.05;14.40;;;359.10;1203.20;;;;;;4987398;28;20026;-83
2021/03/03 12:20:03;;;;;;;23.98;14.20;;;359.00;1177.60;;;;;;4990862;28;20035;-82
2021/03/03 12:22:28;;;;;;;20.08;13.27;;;359.00;1203.20;;;;;;4985106;28;20062;-87